Skip Navigation LinksHome page > Weather > Current weather Skip Navigation Links

Current Weather

Juliana Apt, St Maarten, Netherlands Antilles

For information only: do not use for flight planning or navigation.
Latest weather
Observation time Tuesday, November 24, 2020 10:00 PM AST
Local time Tuesday, November 24, 2020 10:32 PM AST
Flight conditions Marginal Visual Meteorological Conditions
Winds
Wind direction Northeast (50°)
Wind speed 2 mph
Wind gusting to 15 mph
Visibility 6.2 mi.
Present weather VCSH
Sky condition
Ceiling 1,600 ft. broken clouds
Cloud layer broken clouds 1,600 ft.
Temperature 79°F
Dewpoint 73°F
Altimeter 30.00 in.Hg
Derived measurements
Relative humidity 84%
Heat index 79°F
Density altitude 1585 ft.
Remarks
Northeast.
METAR TNCM 250200Z 05002G13KT 9999 VCSH BKN016 26/23 Q1016 RMK VCSH SE/ E/ NE

Settings

Location code

InnerDrive.Weather 4.0.6770.0 Release CLR 4.0.30319.42000
Copyright ©2018 Inner Drive Technology. All rights reserved. Portions Copyright ©1986-2018 David Braverman.

Find weather

Site navigation


Skip Navigation Links

Place info

Page info

PayPal - The safer, easier way to pay online!

Return home.

Copyright ©2020 Inner Drive Technology. Purveyors of fine, hand-crafted computer software. Page printed 2020-11-25T02:32:14 UTC.